sensor_id;sensor_type;location;lat;lon;timestamp;temperature;humidity
5786;DHT22;2919;48.630;9.000;2023-05-07T00:01:01;11.60;99.90
5786;DHT22;2919;48.630;9.000;2023-05-07T00:03:27;11.60;99.90
5786;DHT22;2919;48.630;9.000;2023-05-07T00:05:54;11.70;99.90
5786;DHT22;2919;48.630;9.000;2023-05-07T00:08:19;11.70;99.90
5786;DHT22;2919;48.630;9.000;2023-05-07T00:10:46;11.70;99.90
5786;DHT22;2919;48.630;9.000;2023-05-07T00:13:11;11.70;99.90
5786;DHT22;2919;48.630;9.000;2023-05-07T00:15:37;11.70;99.90
5786;DHT22;2919;48.630;9.000;2023-05-07T00:18:03;11.70;99.90
5786;DHT22;2919;48.630;9.000;2023-05-07T00:20:28;11.60;99.90
5786;DHT22;2919;48.630;9.000;2023-05-07T00:22:54;11.60;99.90
5786;DHT22;2919;48.630;9.000;2023-05-07T00:25:20;11.60;99.90
5786;DHT22;2919;48.630;9.000;2023-05-07T00:27:45;11.60;99.90
5786;DHT22;2919;48.630;9.000;2023-05-07T00:30:11;11.60;99.90
5786;DHT22;2919;48.630;9.000;2023-05-07T00:32:38;11.50;99.90
5786;DHT22;2919;48.630;9.000;2023-05-07T00:35:04;11.60;99.90
5786;DHT22;2919;48.630;9.000;2023-05-07T00:37:30;11.50;99.90
5786;DHT22;2919;48.630;9.000;2023-05-07T00:39:56;11.50;99.90
5786;DHT22;2919;48.630;9.000;2023-05-07T00:42:22;11.50;99.90
5786;DHT22;2919;48.630;9.000;2023-05-07T00:44:48;11.50;99.90
5786;DHT22;2919;48.630;9.000;2023-05-07T00:47:13;11.50;99.90
5786;DHT22;2919;48.630;9.000;2023-05-07T00:49:42;11.50;99.90
5786;DHT22;2919;48.630;9.000;2023-05-07T00:52:11;11.50;99.90
5786;DHT22;2919;48.630;9.000;2023-05-07T00:54:37;11.50;99.90
5786;DHT22;2919;48.630;9.000;2023-05-07T00:57:03;11.50;99.90
5786;DHT22;2919;48.630;9.000;2023-05-07T00:59:32;11.50;99.90
5786;DHT22;2919;48.630;9.000;2023-05-07T01:01:59;11.50;99.90
5786;DHT22;2919;48.630;9.000;2023-05-07T01:04:26;11.40;99.90
5786;DHT22;2919;48.630;9.000;2023-05-07T01:06:52;11.40;99.90
5786;DHT22;2919;48.630;9.000;2023-05-07T01:09:19;11.40;99.90
5786;DHT22;2919;48.630;9.000;2023-05-07T01:11:47;11.40;99.90
5786;DHT22;2919;48.630;9.000;2023-05-07T01:14:13;11.40;99.90
5786;DHT22;2919;48.630;9.000;2023-05-07T01:16:38;11.40;99.90
5786;DHT22;2919;48.630;9.000;2023-05-07T01:19:06;11.40;99.90
5786;DHT22;2919;48.630;9.000;2023-05-07T01:21:33;11.30;99.90
5786;DHT22;2919;48.630;9.000;2023-05-07T01:24:00;11.30;99.90
5786;DHT22;2919;48.630;9.000;2023-05-07T01:26:26;11.30;99.90
5786;DHT22;2919;48.630;9.000;2023-05-07T01:28:51;11.30;99.90
5786;DHT22;2919;48.630;9.000;2023-05-07T01:31:17;11.30;99.90
5786;DHT22;2919;48.630;9.000;2023-05-07T01:33:44;11.30;99.90
5786;DHT22;2919;48.630;9.000;2023-05-07T01:36:11;11.20;99.90
5786;DHT22;2919;48.630;9.000;2023-05-07T01:38:39;11.20;99.90
5786;DHT22;2919;48.630;9.000;2023-05-07T01:41:06;11.20;99.90
5786;DHT22;2919;48.630;9.000;2023-05-07T01:43:32;11.20;99.90
5786;DHT22;2919;48.630;9.000;2023-05-07T01:45:57;11.20;99.90
5786;DHT22;2919;48.630;9.000;2023-05-07T01:48:24;11.20;99.90
5786;DHT22;2919;48.630;9.000;2023-05-07T01:50:50;11.10;99.90
5786;DHT22;2919;48.630;9.000;2023-05-07T01:53:16;11.20;99.90
5786;DHT22;2919;48.630;9.000;2023-05-07T01:55:42;11.30;99.90
5786;DHT22;2919;48.630;9.000;2023-05-07T01:58:08;11.20;99.90
5786;DHT22;2919;48.630;9.000;2023-05-07T02:00:34;11.20;99.90
5786;DHT22;2919;48.630;9.000;2023-05-07T02:03:00;11.20;99.90
5786;DHT22;2919;48.630;9.000;2023-05-07T02:05:26;11.20;99.90
5786;DHT22;2919;48.630;9.000;2023-05-07T02:07:51;11.20;99.90
5786;DHT22;2919;48.630;9.000;2023-05-07T02:10:17;11.20;99.90
5786;DHT22;2919;48.630;9.000;2023-05-07T02:12:42;11.30;99.90
5786;DHT22;2919;48.630;9.000;2023-05-07T02:15:08;11.10;99.90
5786;DHT22;2919;48.630;9.000;2023-05-07T02:17:34;11.10;99.90
5786;DHT22;2919;48.630;9.000;2023-05-07T02:20:00;11.10;99.90
5786;DHT22;2919;48.630;9.000;2023-05-07T02:22:26;11.00;99.90
5786;DHT22;2919;48.630;9.000;2023-05-07T02:24:51;11.00;99.90
5786;DHT22;2919;48.630;9.000;2023-05-07T02:27:17;10.90;99.90
5786;DHT22;2919;48.630;9.000;2023-05-07T02:29:43;10.90;99.90
5786;DHT22;2919;48.630;9.000;2023-05-07T02:32:08;10.90;99.90
5786;DHT22;2919;48.630;9.000;2023-05-07T02:34:34;10.90;99.90
5786;DHT22;2919;48.630;9.000;2023-05-07T02:36:59;10.90;99.90
5786;DHT22;2919;48.630;9.000;2023-05-07T02:39:25;10.80;99.90
5786;DHT22;2919;48.630;9.000;2023-05-07T02:41:51;10.80;99.90
5786;DHT22;2919;48.630;9.000;2023-05-07T02:44:16;10.80;99.90
5786;DHT22;2919;48.630;9.000;2023-05-07T02:46:42;10.80;99.90
5786;DHT22;2919;48.630;9.000;2023-05-07T02:49:07;10.70;99.90
5786;DHT22;2919;48.630;9.000;2023-05-07T02:51:33;10.70;99.90
5786;DHT22;2919;48.630;9.000;2023-05-07T02:53:58;10.60;99.90
5786;DHT22;2919;48.630;9.000;2023-05-07T02:56:26;10.60;99.90
5786;DHT22;2919;48.630;9.000;2023-05-07T02:58:52;10.60;99.90
5786;DHT22;2919;48.630;9.000;2023-05-07T03:01:18;10.40;99.90
5786;DHT22;2919;48.630;9.000;2023-05-07T03:03:44;10.40;99.90
5786;DHT22;2919;48.630;9.000;2023-05-07T03:06:10;10.30;99.90
5786;DHT22;2919;48.630;9.000;2023-05-07T03:08:35;10.30;99.90
5786;DHT22;2919;48.630;9.000;2023-05-07T03:11:02;10.20;99.90
5786;DHT22;2919;48.630;9.000;2023-05-07T03:13:27;10.30;99.90
5786;DHT22;2919;48.630;9.000;2023-05-07T03:15:53;10.20;99.90
5786;DHT22;2919;48.630;9.000;2023-05-07T03:18:19;10.20;99.90
5786;DHT22;2919;48.630;9.000;2023-05-07T03:20:44;10.20;99.90
5786;DHT22;2919;48.630;9.000;2023-05-07T03:23:10;10.20;99.90
5786;DHT22;2919;48.630;9.000;2023-05-07T03:25:35;10.10;99.90
5786;DHT22;2919;48.630;9.000;2023-05-07T03:28:01;10.20;99.90
5786;DHT22;2919;48.630;9.000;2023-05-07T03:30:27;10.20;99.90
5786;DHT22;2919;48.630;9.000;2023-05-07T03:32:52;10.20;99.90
5786;DHT22;2919;48.630;9.000;2023-05-07T03:35:18;10.20;99.90
5786;DHT22;2919;48.630;9.000;2023-05-07T03:37:43;10.20;99.90
5786;DHT22;2919;48.630;9.000;2023-05-07T03:40:10;10.10;99.90
5786;DHT22;2919;48.630;9.000;2023-05-07T03:42:36;10.10;99.90
5786;DHT22;2919;48.630;9.000;2023-05-07T03:45:01;10.00;99.90
5786;DHT22;2919;48.630;9.000;2023-05-07T03:47:27;10.00;99.90
5786;DHT22;2919;48.630;9.000;2023-05-07T03:49:53;10.00;99.90
5786;DHT22;2919;48.630;9.000;2023-05-07T03:52:20;10.00;99.90
5786;DHT22;2919;48.630;9.000;2023-05-07T03:54:49;10.00;99.90
5786;DHT22;2919;48.630;9.000;2023-05-07T03:57:15;10.00;99.90
5786;DHT22;2919;48.630;9.000;2023-05-07T03:59:40;10.00;99.90
5786;DHT22;2919;48.630;9.000;2023-05-07T04:02:06;10.00;99.90
5786;DHT22;2919;48.630;9.000;2023-05-07T04:04:32;9.90;99.90
5786;DHT22;2919;48.630;9.000;2023-05-07T04:06:58;9.90;99.90
5786;DHT22;2919;48.630;9.000;2023-05-07T04:09:24;9.90;99.90
5786;DHT22;2919;48.630;9.000;2023-05-07T04:11:50;9.90;99.90
5786;DHT22;2919;48.630;9.000;2023-05-07T04:14:16;9.90;99.90
5786;DHT22;2919;48.630;9.000;2023-05-07T04:16:41;9.90;99.90
5786;DHT22;2919;48.630;9.000;2023-05-07T04:19:07;9.90;99.90
5786;DHT22;2919;48.630;9.000;2023-05-07T04:21:33;10.00;99.90
5786;DHT22;2919;48.630;9.000;2023-05-07T04:23:58;9.90;99.90
5786;DHT22;2919;48.630;9.000;2023-05-07T04:26:24;9.90;99.90
5786;DHT22;2919;48.630;9.000;2023-05-07T04:28:50;9.80;99.90
5786;DHT22;2919;48.630;9.000;2023-05-07T04:31:16;9.90;99.90
5786;DHT22;2919;48.630;9.000;2023-05-07T04:33:41;9.90;99.90
5786;DHT22;2919;48.630;9.000;2023-05-07T04:36:07;9.90;99.90
5786;DHT22;2919;48.630;9.000;2023-05-07T04:38:33;9.80;99.90
5786;DHT22;2919;48.630;9.000;2023-05-07T04:41:03;9.80;99.90
5786;DHT22;2919;48.630;9.000;2023-05-07T04:43:29;9.80;99.90
5786;DHT22;2919;48.630;9.000;2023-05-07T04:45:55;9.90;99.90
5786;DHT22;2919;48.630;9.000;2023-05-07T04:48:20;9.90;99.90
5786;DHT22;2919;48.630;9.000;2023-05-07T04:50:49;9.90;99.90
5786;DHT22;2919;48.630;9.000;2023-05-07T04:53:16;9.90;99.90
5786;DHT22;2919;48.630;9.000;2023-05-07T04:55:41;10.00;99.90
5786;DHT22;2919;48.630;9.000;2023-05-07T04:58:07;10.00;99.90
5786;DHT22;2919;48.630;9.000;2023-05-07T05:00:33;9.90;99.90
5786;DHT22;2919;48.630;9.000;2023-05-07T05:02:59;10.10;99.90
5786;DHT22;2919;48.630;9.000;2023-05-07T05:05:24;10.20;99.90
5786;DHT22;2919;48.630;9.000;2023-05-07T05:07:50;10.30;99.90
5786;DHT22;2919;48.630;9.000;2023-05-07T05:10:17;10.40;99.90
5786;DHT22;2919;48.630;9.000;2023-05-07T05:12:43;10.50;99.90
5786;DHT22;2919;48.630;9.000;2023-05-07T05:15:09;10.60;99.90
5786;DHT22;2919;48.630;9.000;2023-05-07T05:17:35;10.60;99.90
5786;DHT22;2919;48.630;9.000;2023-05-07T05:20:02;10.70;99.90
5786;DHT22;2919;48.630;9.000;2023-05-07T05:22:27;10.80;99.90
5786;DHT22;2919;48.630;9.000;2023-05-07T05:24:56;10.70;99.90
5786;DHT22;2919;48.630;9.000;2023-05-07T05:27:21;10.90;99.90
5786;DHT22;2919;48.630;9.000;2023-05-07T05:29:47;11.00;99.90
5786;DHT22;2919;48.630;9.000;2023-05-07T05:32:13;11.10;99.90
5786;DHT22;2919;48.630;9.000;2023-05-07T05:34:38;11.30;99.90
5786;DHT22;2919;48.630;9.000;2023-05-07T05:37:04;11.30;99.90
5786;DHT22;2919;48.630;9.000;2023-05-07T05:39:29;11.40;99.90
5786;DHT22;2919;48.630;9.000;2023-05-07T05:41:55;11.50;99.90
5786;DHT22;2919;48.630;9.000;2023-05-07T05:44:20;11.60;99.90
5786;DHT22;2919;48.630;9.000;2023-05-07T05:46:46;11.80;99.90
5786;DHT22;2919;48.630;9.000;2023-05-07T05:49:12;11.90;99.90
5786;DHT22;2919;48.630;9.000;2023-05-07T05:51:38;12.00;99.90
5786;DHT22;2919;48.630;9.000;2023-05-07T05:54:03;12.20;99.90
5786;DHT22;2919;48.630;9.000;2023-05-07T05:56:30;12.40;99.90
5786;DHT22;2919;48.630;9.000;2023-05-07T05:58:55;12.40;99.90
5786;DHT22;2919;48.630;9.000;2023-05-07T06:01:21;12.60;99.90
5786;DHT22;2919;48.630;9.000;2023-05-07T06:03:46;12.80;99.90
5786;DHT22;2919;48.630;9.000;2023-05-07T06:06:12;13.00;99.90
5786;DHT22;2919;48.630;9.000;2023-05-07T06:08:39;13.10;99.90
5786;DHT22;2919;48.630;9.000;2023-05-07T06:11:05;13.30;99.90
5786;DHT22;2919;48.630;9.000;2023-05-07T06:13:31;13.40;99.90
5786;DHT22;2919;48.630;9.000;2023-05-07T06:15:56;13.60;99.90
5786;DHT22;2919;48.630;9.000;2023-05-07T06:18:22;13.70;99.90
5786;DHT22;2919;48.630;9.000;2023-05-07T06:20:47;13.80;99.90
5786;DHT22;2919;48.630;9.000;2023-05-07T06:23:14;13.90;99.90
5786;DHT22;2919;48.630;9.000;2023-05-07T06:25:39;14.00;99.90
5786;DHT22;2919;48.630;9.000;2023-05-07T06:28:05;14.10;99.90
5786;DHT22;2919;48.630;9.000;2023-05-07T06:30:31;14.30;99.90
5786;DHT22;2919;48.630;9.000;2023-05-07T06:32:57;14.40;99.90
5786;DHT22;2919;48.630;9.000;2023-05-07T06:35:22;14.50;99.90
5786;DHT22;2919;48.630;9.000;2023-05-07T06:37:48;14.70;99.90
5786;DHT22;2919;48.630;9.000;2023-05-07T06:40:13;14.80;99.90
5786;DHT22;2919;48.630;9.000;2023-05-07T06:42:39;14.90;99.90
5786;DHT22;2919;48.630;9.000;2023-05-07T06:45:06;15.10;99.90
5786;DHT22;2919;48.630;9.000;2023-05-07T06:47:31;15.20;99.90
5786;DHT22;2919;48.630;9.000;2023-05-07T06:49:57;15.40;99.90
5786;DHT22;2919;48.630;9.000;2023-05-07T06:52:23;15.50;99.90
5786;DHT22;2919;48.630;9.000;2023-05-07T06:54:48;15.60;99.90
5786;DHT22;2919;48.630;9.000;2023-05-07T06:57:14;15.80;99.90
5786;DHT22;2919;48.630;9.000;2023-05-07T06:59:39;16.10;99.90
5786;DHT22;2919;48.630;9.000;2023-05-07T07:02:06;16.20;99.90
5786;DHT22;2919;48.630;9.000;2023-05-07T07:04:31;16.40;99.90
5786;DHT22;2919;48.630;9.000;2023-05-07T07:06:57;16.60;99.90
5786;DHT22;2919;48.630;9.000;2023-05-07T07:09:22;17.00;99.90
5786;DHT22;2919;48.630;9.000;2023-05-07T07:11:48;17.30;99.90
5786;DHT22;2919;48.630;9.000;2023-05-07T07:14:14;17.40;99.90
5786;DHT22;2919;48.630;9.000;2023-05-07T07:16:39;17.70;99.90
5786;DHT22;2919;48.630;9.000;2023-05-07T07:19:06;18.20;99.90
5786;DHT22;2919;48.630;9.000;2023-05-07T07:21:31;18.50;99.90
5786;DHT22;2919;48.630;9.000;2023-05-07T07:23:57;18.90;99.90
5786;DHT22;2919;48.630;9.000;2023-05-07T07:26:23;19.00;99.90
5786;DHT22;2919;48.630;9.000;2023-05-07T07:28:48;19.00;99.90
5786;DHT22;2919;48.630;9.000;2023-05-07T07:31:14;19.20;99.90
5786;DHT22;2919;48.630;9.000;2023-05-07T07:33:40;19.60;99.90
5786;DHT22;2919;48.630;9.000;2023-05-07T07:36:06;20.00;99.90
5786;DHT22;2919;48.630;9.000;2023-05-07T07:38:33;20.70;97.50
5786;DHT22;2919;48.630;9.000;2023-05-07T07:40:59;20.90;97.60
5786;DHT22;2919;48.630;9.000;2023-05-07T07:43:25;21.00;97.60
5786;DHT22;2919;48.630;9.000;2023-05-07T07:45:51;21.60;97.10
5786;DHT22;2919;48.630;9.000;2023-05-07T07:48:16;22.10;95.80
5786;DHT22;2919;48.630;9.000;2023-05-07T07:50:42;21.90;95.30
5786;DHT22;2919;48.630;9.000;2023-05-07T07:53:08;22.30;94.80
5786;DHT22;2919;48.630;9.000;2023-05-07T07:55:38;22.60;94.20
5786;DHT22;2919;48.630;9.000;2023-05-07T07:58:04;22.40;94.10
5786;DHT22;2919;48.630;9.000;2023-05-07T08:00:30;23.40;93.40
5786;DHT22;2919;48.630;9.000;2023-05-07T08:02:56;22.70;93.70
5786;DHT22;2919;48.630;9.000;2023-05-07T08:05:22;22.70;93.40
5786;DHT22;2919;48.630;9.000;2023-05-07T08:07:47;22.60;93.10
5786;DHT22;2919;48.630;9.000;2023-05-07T08:10:17;22.20;94.00
5786;DHT22;2919;48.630;9.000;2023-05-07T08:12:47;22.00;93.90
5786;DHT22;2919;48.630;9.000;2023-05-07T08:15:13;22.10;93.70
5786;DHT22;2919;48.630;9.000;2023-05-07T08:17:38;22.00;94.50
5786;DHT22;2919;48.630;9.000;2023-05-07T08:20:05;21.60;94.60
5786;DHT22;2919;48.630;9.000;2023-05-07T08:22:30;21.10;95.00
5786;DHT22;2919;48.630;9.000;2023-05-07T08:24:56;20.90;93.90
5786;DHT22;2919;48.630;9.000;2023-05-07T08:27:21;20.70;95.00
5786;DHT22;2919;48.630;9.000;2023-05-07T08:29:47;21.40;94.40
5786;DHT22;2919;48.630;9.000;2023-05-07T08:32:14;22.00;93.20
5786;DHT22;2919;48.630;9.000;2023-05-07T08:34:40;22.60;92.10
5786;DHT22;2919;48.630;9.000;2023-05-07T08:37:05;23.90;91.00
5786;DHT22;2919;48.630;9.000;2023-05-07T08:39:31;24.20;91.60
5786;DHT22;2919;48.630;9.000;2023-05-07T08:42:00;24.40;90.90
5786;DHT22;2919;48.630;9.000;2023-05-07T08:44:28;24.60;90.30
5786;DHT22;2919;48.630;9.000;2023-05-07T08:46:58;24.80;87.50
5786;DHT22;2919;48.630;9.000;2023-05-07T08:49:26;24.40;88.40
5786;DHT22;2919;48.630;9.000;2023-05-07T08:51:52;24.30;89.50
5786;DHT22;2919;48.630;9.000;2023-05-07T08:54:18;24.80;88.30
5786;DHT22;2919;48.630;9.000;2023-05-07T08:56:45;25.00;88.00
5786;DHT22;2919;48.630;9.000;2023-05-07T08:59:10;25.30;88.10
5786;DHT22;2919;48.630;9.000;2023-05-07T09:01:36;24.60;88.60
5786;DHT22;2919;48.630;9.000;2023-05-07T09:04:02;24.80;88.90
5786;DHT22;2919;48.630;9.000;2023-05-07T09:06:28;24.80;87.40
5786;DHT22;2919;48.630;9.000;2023-05-07T09:08:54;24.60;90.20
5786;DHT22;2919;48.630;9.000;2023-05-07T09:11:21;24.10;90.00
5786;DHT22;2919;48.630;9.000;2023-05-07T09:13:48;24.40;88.80
5786;DHT22;2919;48.630;9.000;2023-05-07T09:16:14;24.60;89.50
5786;DHT22;2919;48.630;9.000;2023-05-07T09:18:44;25.00;87.70
5786;DHT22;2919;48.630;9.000;2023-05-07T09:21:20;25.00;89.00
5786;DHT22;2919;48.630;9.000;2023-05-07T09:23:51;24.80;88.60
5786;DHT22;2919;48.630;9.000;2023-05-07T09:26:17;24.60;88.20
5786;DHT22;2919;48.630;9.000;2023-05-07T09:28:44;24.50;88.10
5786;DHT22;2919;48.630;9.000;2023-05-07T09:31:10;24.60;89.30
5786;DHT22;2919;48.630;9.000;2023-05-07T09:33:37;24.20;90.50
5786;DHT22;2919;48.630;9.000;2023-05-07T09:36:07;24.20;89.20
5786;DHT22;2919;48.630;9.000;2023-05-07T09:38:33;24.60;89.90
5786;DHT22;2919;48.630;9.000;2023-05-07T09:43:36;24.60;87.70
5786;DHT22;2919;48.630;9.000;2023-05-07T09:48:38;24.10;90.30
5786;DHT22;2919;48.630;9.000;2023-05-07T09:53:50;24.50;87.90
5786;DHT22;2919;48.630;9.000;2023-05-07T09:56:17;24.20;87.90
5786;DHT22;2919;48.630;9.000;2023-05-07T09:58:45;24.50;88.60
5786;DHT22;2919;48.630;9.000;2023-05-07T10:01:12;24.60;90.50
5786;DHT22;2919;48.630;9.000;2023-05-07T10:03:40;24.70;87.50
5786;DHT22;2919;48.630;9.000;2023-05-07T10:06:08;24.80;87.30
5786;DHT22;2919;48.630;9.000;2023-05-07T10:08:35;24.70;86.10
5786;DHT22;2919;48.630;9.000;2023-05-07T10:11:01;24.60;85.10
5786;DHT22;2919;48.630;9.000;2023-05-07T10:13:28;24.00;87.00
5786;DHT22;2919;48.630;9.000;2023-05-07T10:15:55;23.70;87.70
5786;DHT22;2919;48.630;9.000;2023-05-07T10:18:22;23.50;88.70
5786;DHT22;2919;48.630;9.000;2023-05-07T10:20:50;23.20;89.50
5786;DHT22;2919;48.630;9.000;2023-05-07T10:23:19;23.00;90.80
5786;DHT22;2919;48.630;9.000;2023-05-07T10:25:47;22.90;91.30
5786;DHT22;2919;48.630;9.000;2023-05-07T10:28:13;23.00;90.90
5786;DHT22;2919;48.630;9.000;2023-05-07T10:33:23;23.30;89.70
5786;DHT22;2919;48.630;9.000;2023-05-07T10:35:49;22.90;88.60
5786;DHT22;2919;48.630;9.000;2023-05-07T10:38:15;22.90;90.30
5786;DHT22;2919;48.630;9.000;2023-05-07T10:40:40;22.70;90.20
5786;DHT22;2919;48.630;9.000;2023-05-07T10:43:06;22.60;90.40
5786;DHT22;2919;48.630;9.000;2023-05-07T10:45:33;22.70;91.60
5786;DHT22;2919;48.630;9.000;2023-05-07T10:48:17;22.70;91.20
5786;DHT22;2919;48.630;9.000;2023-05-07T10:50:44;22.50;92.00
5786;DHT22;2919;48.630;9.000;2023-05-07T10:53:21;22.30;91.80
5786;DHT22;2919;48.630;9.000;2023-05-07T10:55:50;22.20;90.30
5786;DHT22;2919;48.630;9.000;2023-05-07T11:00:48;22.50;90.80
5786;DHT22;2919;48.630;9.000;2023-05-07T11:03:14;22.40;90.50
5786;DHT22;2919;48.630;9.000;2023-05-07T11:05:41;22.40;91.40
5786;DHT22;2919;48.630;9.000;2023-05-07T11:08:07;22.40;92.00
5786;DHT22;2919;48.630;9.000;2023-05-07T11:10:52;22.40;91.20
5786;DHT22;2919;48.630;9.000;2023-05-07T11:13:19;22.60;90.70
5786;DHT22;2919;48.630;9.000;2023-05-07T11:16:04;22.60;91.60
5786;DHT22;2919;48.630;9.000;2023-05-07T11:18:49;22.60;90.60
5786;DHT22;2919;48.630;9.000;2023-05-07T11:21:40;22.60;91.20
5786;DHT22;2919;48.630;9.000;2023-05-07T11:24:07;22.60;91.00
5786;DHT22;2919;48.630;9.000;2023-05-07T11:29:19;22.10;90.70
5786;DHT22;2919;48.630;9.000;2023-05-07T11:31:52;22.10;90.90
5786;DHT22;2919;48.630;9.000;2023-05-07T11:34:25;22.10;91.20
5786;DHT22;2919;48.630;9.000;2023-05-07T11:36:52;22.00;91.20
5786;DHT22;2919;48.630;9.000;2023-05-07T11:39:32;22.00;92.20
5786;DHT22;2919;48.630;9.000;2023-05-07T11:42:01;22.00;92.00
5786;DHT22;2919;48.630;9.000;2023-05-07T11:44:43;21.90;94.40
5786;DHT22;2919;48.630;9.000;2023-05-07T11:47:10;21.70;92.70
5786;DHT22;2919;48.630;9.000;2023-05-07T11:49:36;21.60;91.90
5786;DHT22;2919;48.630;9.000;2023-05-07T11:52:02;21.60;92.00
5786;DHT22;2919;48.630;9.000;2023-05-07T11:54:35;21.40;93.30
5786;DHT22;2919;48.630;9.000;2023-05-07T11:57:01;21.30;93.30
5786;DHT22;2919;48.630;9.000;2023-05-07T11:59:26;21.10;94.10
5786;DHT22;2919;48.630;9.000;2023-05-07T12:01:52;20.90;94.80
5786;DHT22;2919;48.630;9.000;2023-05-07T12:04:21;20.70;95.70
5786;DHT22;2919;48.630;9.000;2023-05-07T12:06:47;20.40;95.80
5786;DHT22;2919;48.630;9.000;2023-05-07T12:09:12;20.30;96.20
5786;DHT22;2919;48.630;9.000;2023-05-07T12:11:38;19.90;98.10
5786;DHT22;2919;48.630;9.000;2023-05-07T12:14:05;19.60;98.80
5786;DHT22;2919;48.630;9.000;2023-05-07T12:16:31;19.10;99.90
5786;DHT22;2919;48.630;9.000;2023-05-07T12:18:57;18.80;99.90
5786;DHT22;2919;48.630;9.000;2023-05-07T12:21:24;18.40;99.90
5786;DHT22;2919;48.630;9.000;2023-05-07T12:23:50;18.00;99.90
5786;DHT22;2919;48.630;9.000;2023-05-07T12:26:16;17.30;99.90
5786;DHT22;2919;48.630;9.000;2023-05-07T12:28:41;16.30;99.90
5786;DHT22;2919;48.630;9.000;2023-05-07T12:31:07;15.80;99.90
5786;DHT22;2919;48.630;9.000;2023-05-07T12:33:34;15.30;99.90
5786;DHT22;2919;48.630;9.000;2023-05-07T12:36:04;14.90;99.90
5786;DHT22;2919;48.630;9.000;2023-05-07T12:38:37;14.70;99.90
5786;DHT22;2919;48.630;9.000;2023-05-07T12:41:04;14.40;99.90
5786;DHT22;2919;48.630;9.000;2023-05-07T12:43:30;14.00;99.90
5786;DHT22;2919;48.630;9.000;2023-05-07T12:45:57;13.60;99.90
5786;DHT22;2919;48.630;9.000;2023-05-07T12:48:25;13.50;99.90
5786;DHT22;2919;48.630;9.000;2023-05-07T12:50:56;13.40;99.90
5786;DHT22;2919;48.630;9.000;2023-05-07T12:53:24;13.20;99.90
5786;DHT22;2919;48.630;9.000;2023-05-07T12:55:55;12.90;99.90
5786;DHT22;2919;48.630;9.000;2023-05-07T13:00:52;12.70;99.90
5786;DHT22;2919;48.630;9.000;2023-05-07T13:03:28;12.90;99.90
5786;DHT22;2919;48.630;9.000;2023-05-07T13:05:57;12.90;99.90
5786;DHT22;2919;48.630;9.000;2023-05-07T13:08:30;12.90;99.90
5786;DHT22;2919;48.630;9.000;2023-05-07T13:10:58;13.00;99.90
5786;DHT22;2919;48.630;9.000;2023-05-07T13:13:25;13.10;99.90
5786;DHT22;2919;48.630;9.000;2023-05-07T13:15:50;13.10;99.90
5786;DHT22;2919;48.630;9.000;2023-05-07T13:18:16;13.20;99.90
5786;DHT22;2919;48.630;9.000;2023-05-07T13:20:42;13.30;99.90
5786;DHT22;2919;48.630;9.000;2023-05-07T13:23:07;13.40;99.90
5786;DHT22;2919;48.630;9.000;2023-05-07T13:25:33;13.40;99.90
5786;DHT22;2919;48.630;9.000;2023-05-07T13:27:59;13.30;99.90
5786;DHT22;2919;48.630;9.000;2023-05-07T13:30:25;13.30;99.90
5786;DHT22;2919;48.630;9.000;2023-05-07T13:32:51;13.30;99.90
5786;DHT22;2919;48.630;9.000;2023-05-07T13:35:17;13.30;99.90
5786;DHT22;2919;48.630;9.000;2023-05-07T13:37:43;13.40;99.90
5786;DHT22;2919;48.630;9.000;2023-05-07T13:40:09;13.40;99.90
5786;DHT22;2919;48.630;9.000;2023-05-07T13:42:34;13.30;99.90
5786;DHT22;2919;48.630;9.000;2023-05-07T13:45:00;13.20;99.90
5786;DHT22;2919;48.630;9.000;2023-05-07T13:47:27;13.20;99.90
5786;DHT22;2919;48.630;9.000;2023-05-07T13:49:53;13.20;99.90
5786;DHT22;2919;48.630;9.000;2023-05-07T13:52:19;13.30;99.90
5786;DHT22;2919;48.630;9.000;2023-05-07T13:54:45;13.20;99.90
5786;DHT22;2919;48.630;9.000;2023-05-07T13:57:11;13.30;99.90
5786;DHT22;2919;48.630;9.000;2023-05-07T13:59:36;13.30;99.90
5786;DHT22;2919;48.630;9.000;2023-05-07T14:02:02;13.40;99.90
5786;DHT22;2919;48.630;9.000;2023-05-07T14:04:27;13.30;99.90
5786;DHT22;2919;48.630;9.000;2023-05-07T14:06:53;13.30;99.90
5786;DHT22;2919;48.630;9.000;2023-05-07T14:09:18;13.40;99.90
5786;DHT22;2919;48.630;9.000;2023-05-07T14:11:44;13.40;99.90
5786;DHT22;2919;48.630;9.000;2023-05-07T14:14:11;13.30;99.90
5786;DHT22;2919;48.630;9.000;2023-05-07T14:16:37;13.30;99.90
5786;DHT22;2919;48.630;9.000;2023-05-07T14:19:03;13.30;99.90
5786;DHT22;2919;48.630;9.000;2023-05-07T14:21:28;13.30;99.90
5786;DHT22;2919;48.630;9.000;2023-05-07T14:23:55;13.30;99.90
5786;DHT22;2919;48.630;9.000;2023-05-07T14:26:22;13.20;99.90
5786;DHT22;2919;48.630;9.000;2023-05-07T14:28:48;13.30;99.90
5786;DHT22;2919;48.630;9.000;2023-05-07T14:31:14;13.40;99.90
5786;DHT22;2919;48.630;9.000;2023-05-07T14:33:40;13.40;99.90
5786;DHT22;2919;48.630;9.000;2023-05-07T14:36:06;13.50;99.90
5786;DHT22;2919;48.630;9.000;2023-05-07T14:38:32;13.50;99.90
5786;DHT22;2919;48.630;9.000;2023-05-07T14:40:58;13.60;99.90
5786;DHT22;2919;48.630;9.000;2023-05-07T14:43:24;13.60;99.90
5786;DHT22;2919;48.630;9.000;2023-05-07T14:45:49;13.70;99.90
5786;DHT22;2919;48.630;9.000;2023-05-07T14:48:15;13.60;99.90
5786;DHT22;2919;48.630;9.000;2023-05-07T14:50:43;13.70;99.90
5786;DHT22;2919;48.630;9.000;2023-05-07T14:53:11;13.70;99.90
5786;DHT22;2919;48.630;9.000;2023-05-07T14:55:37;13.70;99.90
5786;DHT22;2919;48.630;9.000;2023-05-07T14:58:03;13.70;99.90
5786;DHT22;2919;48.630;9.000;2023-05-07T15:00:28;13.70;99.90
5786;DHT22;2919;48.630;9.000;2023-05-07T15:02:56;13.70;99.90
5786;DHT22;2919;48.630;9.000;2023-05-07T15:05:27;13.70;99.90
5786;DHT22;2919;48.630;9.000;2023-05-07T15:07:53;13.70;99.90
5786;DHT22;2919;48.630;9.000;2023-05-07T15:10:18;13.70;99.90
5786;DHT22;2919;48.630;9.000;2023-05-07T15:12:44;13.80;99.90
5786;DHT22;2919;48.630;9.000;2023-05-07T15:15:10;14.00;99.90
5786;DHT22;2919;48.630;9.000;2023-05-07T15:17:36;14.10;99.90
5786;DHT22;2919;48.630;9.000;2023-05-07T15:20:01;14.20;99.90
5786;DHT22;2919;48.630;9.000;2023-05-07T15:22:30;14.30;99.90
5786;DHT22;2919;48.630;9.000;2023-05-07T15:24:55;14.30;99.90
5786;DHT22;2919;48.630;9.000;2023-05-07T15:27:22;14.30;99.90
5786;DHT22;2919;48.630;9.000;2023-05-07T15:29:48;14.30;99.90
5786;DHT22;2919;48.630;9.000;2023-05-07T15:32:13;14.40;99.90
5786;DHT22;2919;48.630;9.000;2023-05-07T15:34:39;14.40;99.90
5786;DHT22;2919;48.630;9.000;2023-05-07T15:37:04;14.50;99.90
5786;DHT22;2919;48.630;9.000;2023-05-07T15:39:31;14.50;99.90
5786;DHT22;2919;48.630;9.000;2023-05-07T15:41:56;14.40;99.90
5786;DHT22;2919;48.630;9.000;2023-05-07T15:44:22;14.40;99.90
5786;DHT22;2919;48.630;9.000;2023-05-07T15:46:51;14.50;99.90
5786;DHT22;2919;48.630;9.000;2023-05-07T15:49:17;14.60;99.90
5786;DHT22;2919;48.630;9.000;2023-05-07T15:51:42;14.70;99.90
5786;DHT22;2919;48.630;9.000;2023-05-07T15:54:08;14.80;99.90
5786;DHT22;2919;48.630;9.000;2023-05-07T15:56:34;14.90;99.90
5786;DHT22;2919;48.630;9.000;2023-05-07T15:58:59;15.00;99.90
5786;DHT22;2919;48.630;9.000;2023-05-07T16:01:25;15.00;99.90
5786;DHT22;2919;48.630;9.000;2023-05-07T16:03:51;15.10;99.90
5786;DHT22;2919;48.630;9.000;2023-05-07T16:06:16;15.10;99.90
5786;DHT22;2919;48.630;9.000;2023-05-07T16:08:42;15.20;99.90
5786;DHT22;2919;48.630;9.000;2023-05-07T16:11:09;15.20;99.90
5786;DHT22;2919;48.630;9.000;2023-05-07T16:13:35;15.30;99.90
5786;DHT22;2919;48.630;9.000;2023-05-07T16:16:01;15.30;99.90